Time;durP1;ratioP1;P1;durP2;ratioP2;P2;SDS_P1;SDS_P2;PMS_P1;PMS_P2;Temp;Humidity;BMP_temperature;BMP_pressure;BME280_temperature;BME280_humidity;BME280_pressure;Samples;Min_cycle;Max_cycle;Signal;HPM_P1;HPM_P2
2021/07/15 00:01:45;;;;;;;13.27;11.88;;;21.80;99.90;;;;;;5064862;28;20035;-61
2021/07/15 00:04:14;;;;;;;12.65;11.32;;;21.80;99.90;;;;;;5085154;28;20039;-62
2021/07/15 00:06:41;;;;;;;13.35;11.63;;;21.90;99.90;;;;;;5083648;28;20085;-61
2021/07/15 00:09:08;;;;;;;15.38;11.80;;;21.90;99.90;;;;;;5084848;28;20112;-61
2021/07/15 00:11:38;;;;;;;14.13;12.05;;;21.90;99.90;;;;;;5083434;28;20028;-61
2021/07/15 00:14:05;;;;;;;13.38;11.90;;;21.90;99.90;;;;;;5052690;28;20030;-61
2021/07/15 00:16:31;;;;;;;12.63;11.18;;;21.90;99.90;;;;;;5086015;28;20119;-61
2021/07/15 00:18:57;;;;;;;13.18;11.75;;;21.80;99.90;;;;;;5088227;28;20031;-61
2021/07/15 00:21:25;;;;;;;13.55;11.85;;;21.80;99.90;;;;;;5087611;28;20097;-61
2021/07/15 00:23:52;;;;;;;13.90;12.50;;;21.80;99.90;;;;;;5088871;28;20133;-61
2021/07/15 00:26:23;;;;;;;14.57;11.98;;;21.80;99.90;;;;;;5085192;28;20051;-61
2021/07/15 00:28:49;;;;;;;13.23;11.82;;;21.80;99.90;;;;;;5085273;28;20028;-61
2021/07/15 00:31:15;;;;;;;13.82;12.27;;;21.70;99.90;;;;;;5087520;28;20035;-62
2021/07/15 00:33:41;;;;;;;12.95;11.43;;;21.80;99.90;;;;;;5089074;28;20570;-61
2021/07/15 00:36:08;;;;;;;14.65;11.20;;;21.70;99.90;;;;;;5088116;28;20028;-61
2021/07/15 00:38:34;;;;;;;13.60;11.90;;;21.70;99.90;;;;;;5088378;28;20512;-61
2021/07/15 00:41:00;;;;;;;18.15;12.38;;;21.60;99.90;;;;;;5088724;28;20050;-61
2021/07/15 00:43:27;;;;;;;13.63;12.27;;;21.50;99.90;;;;;;5088143;28;20561;-61
2021/07/15 00:45:52;;;;;;;14.02;12.57;;;21.50;99.90;;;;;;5089011;28;20127;-63
2021/07/15 00:48:19;;;;;;;13.63;12.15;;;21.50;99.90;;;;;;5088325;28;20032;-63
2021/07/15 00:50:45;;;;;;;14.50;12.45;;;21.40;99.90;;;;;;5089201;28;20504;-61
2021/07/15 00:53:13;;;;;;;13.77;12.38;;;21.40;99.90;;;;;;5083417;28;20047;-62
2021/07/15 00:55:44;;;;;;;14.63;13.13;;;21.40;99.90;;;;;;5085649;28;20624;-63
2021/07/15 00:58:13;;;;;;;12.70;11.45;;;21.30;99.90;;;;;;5087771;28;20024;-62
2021/07/15 01:00:40;;;;;;;;;;;21.40;99.90;;;;;;5087527;28;20078;-61
2021/07/15 01:03:07;;;;;;;13.07;11.70;;;21.30;99.90;;;;;;5086568;28;20300;-61
2021/07/15 01:05:38;;;;;;;11.75;10.52;;;21.30;99.90;;;;;;5086838;28;20036;-61
2021/07/15 01:08:05;;;;;;;12.07;10.55;;;21.20;99.90;;;;;;5087101;28;20410;-61
2021/07/15 01:10:37;;;;;;;11.35;10.20;;;21.20;99.90;;;;;;5086456;28;20348;-61
2021/07/15 01:13:19;;;;;;;13.52;10.98;;;21.20;99.90;;;;;;5087452;28;20550;-61
2021/07/15 01:15:57;;;;;;;12.00;9.95;;;21.10;99.90;;;;;;5085730;28;20112;-61
2021/07/15 01:18:56;;;;;;;11.27;9.93;;;21.10;99.90;;;;;;5087515;28;20225;-61
2021/07/15 01:21:43;;;;;;;11.75;10.07;;;21.10;99.90;;;;;;5065036;28;20040;-61
2021/07/15 01:24:50;;;;;;;12.02;10.10;;;21.00;99.90;;;;;;5086072;28;20107;-61
2021/07/15 01:27:17;;;;;;;10.70;9.32;;;21.00;99.90;;;;;;5087478;28;20468;-61
2021/07/15 01:29:55;;;;;;;11.35;9.73;;;20.90;99.90;;;;;;5088126;28;20032;-61
2021/07/15 01:32:47;;;;;;;12.48;9.82;;;20.90;99.90;;;;;;5086771;28;20035;-61
2021/07/15 01:35:17;;;;;;;10.93;9.48;;;20.80;99.90;;;;;;5069187;28;20034;-61
2021/07/15 01:37:52;;;;;;;12.10;9.95;;;20.80;99.90;;;;;;5088506;28;20098;-61
2021/07/15 01:40:22;;;;;;;10.27;9.18;;;20.90;99.90;;;;;;5086294;28;20431;-61
2021/07/15 01:42:54;;;;;;;11.48;9.63;;;20.90;99.90;;;;;;5087108;28;20036;-61
2021/07/15 01:45:20;;;;;;;11.63;10.02;;;21.00;99.90;;;;;;5068419;28;20556;-61
2021/07/15 01:47:46;;;;;;;11.80;10.52;;;20.90;99.90;;;;;;5085468;28;20032;-61
2021/07/15 01:50:13;;;;;;;14.10;11.50;;;20.80;99.90;;;;;;5088931;28;20113;-61
2021/07/15 01:52:39;;;;;;;15.10;12.80;;;20.80;99.90;;;;;;5086345;28;20111;-61
2021/07/15 01:55:06;;;;;;;17.50;11.35;;;20.90;99.90;;;;;;5085888;28;20022;-61
2021/07/15 01:57:32;;;;;;;14.52;11.68;;;20.80;99.90;;;;;;5085296;28;20031;-61
2021/07/15 01:59:59;;;;;;;14.20;11.25;;;20.80;99.90;;;;;;5087520;28;20346;-63
2021/07/15 02:02:27;;;;;;;15.35;12.30;;;20.70;99.90;;;;;;5064110;28;20024;-61
2021/07/15 02:04:56;;;;;;;17.55;12.82;;;20.70;99.90;;;;;;5085334;28;20491;-60
2021/07/15 02:07:24;;;;;;;17.30;13.25;;;20.50;99.90;;;;;;5087304;28;20040;-61
2021/07/15 02:09:51;;;;;;;17.55;12.07;;;20.60;99.90;;;;;;5085068;28;20027;-61
2021/07/15 02:12:19;;;;;;;22.55;13.25;;;20.60;99.90;;;;;;5086488;28;20071;-61
2021/07/15 02:14:48;;;;;;;16.00;12.32;;;20.60;99.90;;;;;;5087306;28;20558;-61
2021/07/15 02:17:14;;;;;;;15.40;12.43;;;20.60;99.90;;;;;;5085760;28;20485;-61
2021/07/15 02:19:42;;;;;;;17.67;12.60;;;20.70;99.90;;;;;;5083870;28;20097;-61
2021/07/15 02:22:08;;;;;;;18.55;13.45;;;20.50;99.90;;;;;;5088818;28;20031;-61
2021/07/15 02:24:35;;;;;;;20.13;13.43;;;20.60;99.90;;;;;;5084547;28;20088;-61
2021/07/15 02:27:04;;;;;;;17.98;13.55;;;20.60;99.90;;;;;;5083813;28;20133;-61
2021/07/15 02:29:32;;;;;;;19.63;12.85;;;20.50;99.90;;;;;;5085645;28;20032;-61
2021/07/15 02:32:03;;;;;;;18.67;13.48;;;20.40;99.90;;;;;;5086329;28;20071;-61
2021/07/15 02:34:35;;;;;;;22.15;12.75;;;20.40;99.90;;;;;;5084235;28;20504;-61
2021/07/15 02:37:02;;;;;;;19.00;12.18;;;20.40;99.90;;;;;;5084822;28;20020;-60
2021/07/15 02:39:28;;;;;;;19.88;12.98;;;20.40;99.90;;;;;;5087661;28;20059;-61
2021/07/15 02:41:54;;;;;;;19.73;13.05;;;20.30;99.90;;;;;;5087300;28;20138;-61
2021/07/15 02:44:20;;;;;;;17.60;12.95;;;20.30;99.90;;;;;;5086600;28;20100;-61
2021/07/15 02:46:46;;;;;;;18.17;12.98;;;20.40;99.90;;;;;;5084618;28;20103;-61
2021/07/15 02:49:12;;;;;;;18.00;12.95;;;20.30;99.90;;;;;;5085913;28;20518;-61
2021/07/15 02:51:38;;;;;;;21.10;13.55;;;20.30;99.90;;;;;;5087414;28;20345;-61
2021/07/15 02:54:04;;;;;;;19.33;13.43;;;20.20;99.90;;;;;;5085871;28;20694;-61
2021/07/15 02:56:51;;;;;;;22.30;13.52;;;20.20;99.90;;;;;;5084904;28;20058;-59
2021/07/15 02:59:35;;;;;;;22.77;12.90;;;20.20;99.90;;;;;;5085300;28;20050;-59
2021/07/15 03:02:10;;;;;;;21.70;13.93;;;20.10;99.90;;;;;;5086018;28;20321;-59
2021/07/15 03:04:53;;;;;;;19.67;12.43;;;20.10;99.90;;;;;;5082727;28;20498;-60
2021/07/15 03:07:20;;;;;;;18.02;11.50;;;20.00;99.90;;;;;;5086239;28;20114;-61
2021/07/15 03:09:50;;;;;;;23.85;12.40;;;19.90;99.90;;;;;;5085454;28;20457;-58
2021/07/15 03:12:20;;;;;;;19.05;12.52;;;20.00;99.90;;;;;;5085706;28;20042;-59
2021/07/15 03:14:47;;;;;;;14.95;11.18;;;19.90;99.90;;;;;;5051152;28;20609;-61
2021/07/15 03:17:15;;;;;;;17.98;10.80;;;19.80;99.90;;;;;;5086106;28;20040;-59
2021/07/15 03:19:48;;;;;;;20.15;12.27;;;19.70;99.90;;;;;;5084027;28;20036;-59
2021/07/15 03:22:16;;;;;;;18.33;11.52;;;19.70;99.90;;;;;;5084685;28;20391;-59
2021/07/15 03:24:52;;;;;;;18.77;12.05;;;19.70;99.90;;;;;;5085282;28;20076;-59
2021/07/15 03:27:19;;;;;;;16.30;10.60;;;19.70;99.90;;;;;;5084021;28;20040;-59
2021/07/15 03:29:47;;;;;;;23.73;11.43;;;19.70;99.90;;;;;;5085000;28;20476;-59
2021/07/15 03:32:14;;;;;;;23.30;10.90;;;19.70;99.90;;;;;;5084708;28;20130;-59
2021/07/15 03:34:41;;;;;;;18.00;10.90;;;19.70;99.90;;;;;;5084084;28;20028;-59
2021/07/15 03:37:08;;;;;;;21.48;11.38;;;19.60;99.90;;;;;;5081728;28;20039;-59
2021/07/15 03:39:36;;;;;;;24.85;11.55;;;19.60;99.90;;;;;;5084436;28;20052;-59
2021/07/15 03:42:02;;;;;;;17.95;10.63;;;19.70;99.90;;;;;;5086451;28;20046;-58
2021/07/15 03:44:28;;;;;;;24.83;12.15;;;19.70;99.90;;;;;;5084133;28;20094;-59
2021/07/15 03:46:55;;;;;;;25.25;12.07;;;19.70;99.90;;;;;;5086742;28;20530;-59
2021/07/15 03:49:24;;;;;;;28.60;12.25;;;19.70;99.90;;;;;;5087690;28;20839;-59
2021/07/15 03:51:51;;;;;;;22.27;11.73;;;19.80;99.90;;;;;;5090959;28;20092;-59
2021/07/15 03:54:20;;;;;;;26.48;11.77;;;19.70;99.90;;;;;;5091609;28;20071;-61
2021/07/15 03:56:47;;;;;;;25.90;10.88;;;19.80;99.90;;;;;;5086769;28;20024;-61
2021/07/15 03:59:16;;;;;;;26.52;11.65;;;19.70;99.90;;;;;;5086475;28;20028;-61
2021/07/15 04:01:43;;;;;;;20.07;10.60;;;19.70;99.90;;;;;;5088496;28;20597;-61
2021/07/15 04:04:10;;;;;;;20.27;9.75;;;19.80;99.90;;;;;;5092898;28;20364;-61
2021/07/15 04:06:36;;;;;;;21.25;10.13;;;19.80;99.90;;;;;;5088996;28;20055;-62
2021/07/15 04:09:05;;;;;;;23.90;9.30;;;19.80;99.90;;;;;;5085396;28;20376;-71
2021/07/15 04:11:33;;;;;;;23.27;10.35;;;19.80;99.90;;;;;;5088503;28;20414;-71
2021/07/15 04:14:01;;;;;;;23.27;9.15;;;19.80;99.90;;;;;;5092152;28;20030;-71
2021/07/15 04:16:56;;;;;;;19.45;8.77;;;19.70;99.90;;;;;;5089210;28;20382;-71
2021/07/15 04:19:23;;;;;;;24.20;10.48;;;19.70;99.90;;;;;;5090567;28;20047;-71
2021/07/15 04:21:50;;;;;;;24.02;10.85;;;19.70;99.90;;;;;;5089043;28;20030;-72
2021/07/15 04:24:17;;;;;;;20.98;9.05;;;19.70;99.90;;;;;;5071996;28;20472;-70
2021/07/15 04:26:44;;;;;;;27.15;10.52;;;19.70;99.90;;;;;;5091665;28;20056;-70
2021/07/15 04:29:10;;;;;;;22.60;9.38;;;19.60;99.90;;;;;;5088093;28;20035;-71
2021/07/15 04:31:53;;;;;;;27.15;9.43;;;19.60;99.90;;;;;;5091851;28;20020;-70
2021/07/15 04:34:19;;;;;;;18.63;8.45;;;19.60;99.90;;;;;;5091611;28;20459;-70
2021/07/15 04:36:48;;;;;;;21.02;9.25;;;19.70;99.90;;;;;;5088998;28;20106;-70
2021/07/15 04:39:14;;;;;;;22.38;8.55;;;19.70;99.90;;;;;;5088963;28;20035;-70
2021/07/15 04:41:42;;;;;;;18.67;8.32;;;19.70;99.90;;;;;;5094089;28;20028;-71
2021/07/15 04:44:12;;;;;;;19.25;8.38;;;19.70;99.90;;;;;;5087009;28;20032;-70
2021/07/15 04:46:38;;;;;;;;;;;19.70;99.90;;;;;;5087543;28;20388;-70
2021/07/15 04:49:06;;;;;;;21.17;8.35;;;19.60;99.90;;;;;;5086827;28;20329;-70
2021/07/15 04:51:37;;;;;;;20.05;8.15;;;19.60;99.90;;;;;;5090117;28;20042;-70
2021/07/15 04:54:04;;;;;;;20.75;8.70;;;19.50;99.90;;;;;;5091193;28;20036;-70
2021/07/15 04:56:32;;;;;;;20.50;9.52;;;19.60;99.90;;;;;;5089923;28;20028;-70
2021/07/15 04:58:59;;;;;;;18.83;8.20;;;19.70;99.90;;;;;;5086793;28;20040;-71
2021/07/15 05:01:25;;;;;;;27.45;10.75;;;19.70;99.90;;;;;;5045185;28;20755;-70
2021/07/15 05:03:51;;;;;;;15.20;8.75;;;19.80;99.90;;;;;;5081015;28;20036;-68
2021/07/15 05:06:19;;;;;;;16.50;9.20;;;19.90;99.90;;;;;;5076749;28;20065;-70
2021/07/15 05:08:45;;;;;;;21.73;9.23;;;19.90;99.90;;;;;;5086524;28;20436;-70
2021/07/15 05:11:12;;;;;;;17.48;9.20;;;19.80;99.90;;;;;;5087138;28;20024;-70
2021/07/15 05:13:39;;;;;;;19.60;9.40;;;19.80;99.90;;;;;;5087414;28;20039;-70
2021/07/15 05:16:06;;;;;;;20.75;9.45;;;19.80;99.90;;;;;;5086084;28;20034;-70
2021/07/15 05:18:34;;;;;;;21.15;9.38;;;19.80;99.90;;;;;;5068236;28;20023;-70
2021/07/15 05:21:00;;;;;;;17.70;9.30;;;19.70;99.90;;;;;;5088905;28;20027;-70
2021/07/15 05:23:26;;;;;;;18.90;8.38;;;19.70;99.90;;;;;;5087824;28;20119;-71
2021/07/15 05:25:53;;;;;;;21.45;9.73;;;19.70;99.90;;;;;;5088580;28;20040;-68
2021/07/15 05:28:20;;;;;;;19.52;9.45;;;19.70;99.90;;;;;;5088608;28;20040;-68
2021/07/15 05:30:46;;;;;;;21.13;8.55;;;19.80;99.90;;;;;;5089201;28;20104;-68
2021/07/15 05:33:12;;;;;;;20.88;9.65;;;19.90;99.90;;;;;;5089770;28;20445;-70
2021/07/15 05:35:39;;;;;;;15.77;7.80;;;20.00;99.90;;;;;;5086551;28;20508;-70
2021/07/15 05:38:06;;;;;;;19.63;8.30;;;20.00;99.90;;;;;;5088471;28;20080;-68
2021/07/15 05:40:32;;;;;;;11.60;7.88;;;20.00;99.90;;;;;;5087262;28;20032;-68
2021/07/15 05:42:58;;;;;;;16.60;8.65;;;20.20;99.90;;;;;;5089583;28;20019;-70
2021/07/15 05:45:25;;;;;;;15.63;7.88;;;20.20;99.90;;;;;;5070409;28;20064;-71
2021/07/15 05:47:51;;;;;;;20.25;8.32;;;20.20;99.90;;;;;;5088787;28;20033;-69
2021/07/15 05:50:16;;;;;;;16.75;8.07;;;20.30;99.90;;;;;;5088384;28;20043;-68
2021/07/15 05:52:42;;;;;;;18.52;7.80;;;20.40;99.90;;;;;;5069738;28;20520;-69
2021/07/15 05:55:08;;;;;;;14.43;7.20;;;20.60;99.90;;;;;;5069433;28;20177;-69
2021/07/15 05:57:34;;;;;;;17.08;7.82;;;20.70;99.90;;;;;;5088149;28;20131;-68
2021/07/15 06:00:01;;;;;;;17.80;8.45;;;20.70;99.90;;;;;;5086931;28;20028;-71
2021/07/15 06:02:27;;;;;;;14.82;7.72;;;20.50;99.90;;;;;;5087132;28;20077;-69
2021/07/15 06:04:53;;;;;;;17.30;7.80;;;20.60;99.90;;;;;;5087118;28;20028;-69
2021/07/15 06:07:19;;;;;;;16.20;7.07;;;20.60;99.90;;;;;;5088197;28;20600;-69
2021/07/15 06:09:45;;;;;;;12.15;7.07;;;20.70;99.90;;;;;;5087711;28;20488;-69
2021/07/15 06:12:11;;;;;;;16.65;7.57;;;20.70;99.90;;;;;;5087691;28;20084;-69
2021/07/15 06:14:36;;;;;;;13.88;7.18;;;20.90;99.90;;;;;;5087654;28;20028;-69
2021/07/15 06:17:03;;;;;;;13.77;6.97;;;21.10;99.90;;;;;;5087423;28;20054;-69
2021/07/15 06:19:30;;;;;;;14.18;6.07;;;21.20;99.90;;;;;;5068050;28;20031;-69
2021/07/15 06:21:56;;;;;;;12.60;6.75;;;21.40;99.90;;;;;;5088813;28;20031;-69
2021/07/15 06:24:22;;;;;;;13.90;6.60;;;21.50;99.90;;;;;;5088455;28;20479;-69
2021/07/15 06:26:48;;;;;;;12.32;6.97;;;21.40;99.90;;;;;;5086064;28;20506;-69
2021/07/15 06:29:15;;;;;;;14.50;6.07;;;21.50;99.90;;;;;;5085643;28;20508;-69
2021/07/15 06:31:41;;;;;;;12.18;6.22;;;21.60;99.90;;;;;;5069200;28;20098;-68
2021/07/15 06:34:07;;;;;;;14.65;6.70;;;21.60;99.90;;;;;;5086066;28;20035;-69
2021/07/15 06:36:33;;;;;;;12.70;5.75;;;21.60;99.90;;;;;;5088182;28;20024;-68
2021/07/15 06:38:59;;;;;;;12.73;5.78;;;21.70;99.90;;;;;;5086129;28;20392;-69
2021/07/15 06:41:26;;;;;;;9.30;5.20;;;21.90;99.90;;;;;;5069756;28;20029;-70
2021/07/15 06:43:52;;;;;;;11.02;5.22;;;22.30;99.90;;;;;;5086653;28;20062;-69
2021/07/15 06:46:20;;;;;;;10.15;5.05;;;22.70;99.90;;;;;;5086647;28;20043;-66
2021/07/15 06:48:46;;;;;;;13.68;5.43;;;22.90;99.90;;;;;;5087638;28;20024;-69
2021/07/15 06:51:12;;;;;;;12.15;4.93;;;23.10;99.90;;;;;;5087349;28;20084;-69
2021/07/15 06:53:38;;;;;;;14.52;6.15;;;23.30;99.90;;;;;;5087389;28;20056;-69
2021/07/15 06:56:04;;;;;;;11.73;5.63;;;23.40;99.90;;;;;;5085991;28;20127;-68
2021/07/15 06:58:29;;;;;;;14.95;5.63;;;23.50;99.90;;;;;;5088290;28;20060;-69
2021/07/15 07:00:56;;;;;;;14.45;6.35;;;23.70;99.90;;;;;;5087020;28;20016;-69
2021/07/15 07:03:22;;;;;;;15.13;5.50;;;23.80;99.90;;;;;;5086660;28;20940;-66
2021/07/15 07:05:53;;;;;;;11.65;5.35;;;23.70;99.90;;;;;;5086888;28;20032;-67
2021/07/15 07:08:19;;;;;;;14.10;5.50;;;23.60;99.90;;;;;;5085790;28;20896;-66
2021/07/15 07:10:45;;;;;;;15.65;6.38;;;23.40;99.90;;;;;;5084208;28;20051;-67
2021/07/15 07:13:11;;;;;;;15.73;5.85;;;23.30;99.90;;;;;;5086304;28;20115;-66
2021/07/15 07:15:37;;;;;;;17.23;5.35;;;23.40;99.90;;;;;;5087306;28;20420;-66
2021/07/15 07:18:03;;;;;;;11.50;5.50;;;23.40;99.90;;;;;;5087907;28;20055;-66
2021/07/15 07:20:29;;;;;;;13.18;4.90;;;23.30;99.90;;;;;;5087114;28;20058;-67
2021/07/15 07:22:55;;;;;;;10.25;5.45;;;23.20;99.90;;;;;;5087266;28;20027;-67
2021/07/15 07:25:21;;;;;;;11.25;4.78;;;23.30;99.90;;;;;;5086394;28;20105;-67
2021/07/15 07:27:47;;;;;;;13.52;5.68;;;23.70;99.90;;;;;;5067562;28;20575;-67
2021/07/15 07:30:15;;;;;;;16.52;5.68;;;23.90;99.90;;;;;;5087569;28;20031;-66
2021/07/15 07:32:42;;;;;;;8.98;4.38;;;24.20;99.90;;;;;;5087224;28;20036;-69
2021/07/15 07:35:09;;;;;;;9.88;4.70;;;24.60;99.90;;;;;;5086127;28;20092;-69
2021/07/15 07:37:34;;;;;;;14.13;5.95;;;24.80;99.90;;;;;;5087439;28;20044;-71
2021/07/15 07:40:01;;;;;;;11.80;5.15;;;25.10;99.90;;;;;;5086230;28;20020;-71
2021/07/15 07:42:27;;;;;;;12.18;4.45;;;25.30;99.90;;;;;;5068524;28;20030;-72
2021/07/15 07:44:53;;;;;;;14.40;5.03;;;25.50;99.90;;;;;;5086284;28;20032;-72
2021/07/15 07:47:19;;;;;;;11.77;4.88;;;25.70;99.90;;;;;;5086033;28;20055;-72
2021/07/15 07:49:45;;;;;;;12.25;5.03;;;25.90;99.90;;;;;;5087648;28;20123;-71
2021/07/15 07:52:11;;;;;;;9.50;4.78;;;25.90;99.90;;;;;;5085706;28;20012;-71
2021/07/15 07:54:37;;;;;;;12.52;4.55;;;26.00;99.90;;;;;;5086220;28;20103;-71
2021/07/15 07:57:03;;;;;;;11.48;4.72;;;26.00;99.90;;;;;;5085677;28;20112;-72
2021/07/15 07:59:29;;;;;;;13.85;5.30;;;26.10;99.90;;;;;;5085604;28;20592;-71
2021/07/15 08:01:54;;;;;;;11.77;5.18;;;26.20;99.90;;;;;;5087000;28;20467;-72
2021/07/15 08:04:20;;;;;;;8.68;4.20;;;26.50;99.90;;;;;;5087268;28;20055;-72
2021/07/15 08:06:48;;;;;;;14.10;5.13;;;26.60;99.90;;;;;;5085847;28;20549;-72
2021/07/15 08:09:16;;;;;;;15.13;5.60;;;26.80;99.90;;;;;;5085926;28;20024;-70
2021/07/15 08:11:46;;;;;;;14.60;4.90;;;27.10;99.90;;;;;;5087246;28;20036;-69
2021/07/15 08:14:12;;;;;;;12.07;4.82;;;27.30;99.90;;;;;;5081896;28;20020;-69
2021/07/15 08:16:38;;;;;;;15.45;5.55;;;27.40;99.90;;;;;;5086550;28;20101;-69
2021/07/15 08:19:04;;;;;;;15.35;4.88;;;27.30;99.90;;;;;;5087063;28;20150;-69
2021/07/15 08:21:30;;;;;;;11.15;5.00;;;27.50;99.90;;;;;;5086910;28;20088;-69
2021/07/15 08:23:56;;;;;;;11.52;4.35;;;27.40;99.90;;;;;;5087208;28;20024;-69
2021/07/15 08:26:21;;;;;;;13.13;5.18;;;27.30;99.90;;;;;;5085375;28;20083;-69
2021/07/15 08:28:47;;;;;;;11.05;4.60;;;27.20;99.90;;;;;;5086288;28;20053;-69
2021/07/15 08:31:13;;;;;;;11.27;4.45;;;27.10;99.90;;;;;;5087011;28;20394;-69
2021/07/15 08:33:39;;;;;;;17.13;5.55;;;27.20;99.90;;;;;;5086781;28;20111;-69
2021/07/15 08:36:05;;;;;;;11.88;4.97;;;27.30;99.90;;;;;;5090122;28;20554;-70
2021/07/15 08:38:31;;;;;;;12.05;5.03;;;27.60;99.90;;;;;;5090700;28;20032;-69
2021/07/15 08:40:57;;;;;;;12.38;5.45;;;27.70;99.90;;;;;;5089645;28;20027;-69
2021/07/15 08:43:23;;;;;;;9.40;4.72;;;27.50;99.90;;;;;;5088815;28;20031;-69
2021/07/15 08:45:50;;;;;;;14.38;4.55;;;27.40;99.90;;;;;;5088062;28;20123;-70
2021/07/15 08:48:18;;;;;;;15.60;6.15;;;27.30;99.90;;;;;;5089479;28;20598;-70
2021/07/15 08:50:44;;;;;;;8.95;4.88;;;27.20;99.90;;;;;;5089752;28;20034;-70
2021/07/15 08:53:11;;;;;;;14.35;5.38;;;27.40;99.90;;;;;;5088691;28;20032;-69
2021/07/15 08:58:17;;;;;;;17.77;5.88;;;27.50;99.90;;;;;;5090038;28;20566;-70
2021/07/15 09:00:43;;;;;;;15.75;5.43;;;27.80;99.90;;;;;;5089884;28;20039;-70
2021/07/15 09:03:10;;;;;;;11.65;4.93;;;27.80;99.90;;;;;;5090004;28;20019;-69
2021/07/15 09:05:36;;;;;;;10.38;4.50;;;27.90;99.90;;;;;;5088750;28;20543;-70
2021/07/15 09:08:03;;;;;;;14.93;6.25;;;27.90;99.90;;;;;;5088548;28;20443;-70
2021/07/15 09:10:29;;;;;;;13.10;4.90;;;28.20;99.90;;;;;;5085792;28;20543;-70
2021/07/15 09:13:00;;;;;;;17.35;5.47;;;28.10;99.90;;;;;;5089610;28;20126;-70
2021/07/15 09:15:26;;;;;;;13.10;5.70;;;28.00;99.90;;;;;;5090032;28;20122;-70
2021/07/15 09:17:51;;;;;;;10.25;4.45;;;27.90;99.90;;;;;;5089924;28;20139;-70
2021/07/15 09:20:20;;;;;;;13.68;5.30;;;28.00;99.90;;;;;;5088922;28;20016;-69
2021/07/15 09:22:59;;;;;;;;;;;27.90;99.90;;;;;;5090980;28;20028;-69
2021/07/15 09:25:48;;;;;;;14.15;5.10;;;27.90;99.90;;;;;;5088449;28;19956;-69
2021/07/15 09:28:17;;;;;;;15.15;5.57;;;27.90;99.90;;;;;;5088384;28;20477;-69
2021/07/15 09:30:44;;;;;;;11.82;4.65;;;27.70;99.90;;;;;;5089248;28;20063;-70
2021/07/15 09:33:12;;;;;;;12.43;5.13;;;27.70;99.90;;;;;;5089222;28;20089;-70
2021/07/15 09:35:44;;;;;;;14.05;5.40;;;27.80;99.90;;;;;;5088900;28;20035;-70
2021/07/15 09:38:16;;;;;;;11.68;4.75;;;28.00;99.90;;;;;;5089853;28;20037;-70
2021/07/15 09:40:42;;;;;;;11.90;4.60;;;28.10;99.90;;;;;;5087574;28;20028;-70
2021/07/15 09:43:32;;;;;;;17.38;5.80;;;28.20;99.90;;;;;;5089524;28;20066;-70
2021/07/15 09:46:16;;;;;;;13.13;4.95;;;28.20;99.90;;;;;;5075142;28;20485;-70
2021/07/15 09:49:01;;;;;;;14.82;6.32;;;28.20;99.90;;;;;;5089031;28;20085;-69
2021/07/15 09:51:37;;;;;;;13.20;5.38;;;28.40;99.90;;;;;;5088213;28;20517;-69
2021/07/15 09:54:04;;;;;;;16.00;5.45;;;28.40;99.90;;;;;;5087129;28;20110;-69
2021/07/15 09:56:40;;;;;;;11.55;4.95;;;28.60;99.90;;;;;;5052997;28;20067;-70
2021/07/15 09:59:06;;;;;;;12.48;5.25;;;28.90;99.90;;;;;;5087292;28;20516;-70
2021/07/15 10:01:31;;;;;;;13.68;5.38;;;28.90;99.90;;;;;;5088545;28;20038;-70
2021/07/15 10:04:03;;;;;;;12.60;4.97;;;28.80;99.90;;;;;;5089266;28;20035;-70
2021/07/15 10:06:45;;;;;;;13.68;5.30;;;28.90;99.90;;;;;;5088512;28;20042;-70
2021/07/15 10:09:40;;;;;;;11.27;4.85;;;28.50;99.90;;;;;;5085971;28;20050;-70
2021/07/15 10:12:25;;;;;;;11.45;4.63;;;28.50;99.90;;;;;;5067700;28;20153;-70
2021/07/15 10:14:50;;;;;;;17.33;5.18;;;28.70;99.90;;;;;;5067879;28;20016;-70
2021/07/15 10:17:36;;;;;;;12.57;4.72;;;28.80;99.90;;;;;;5088748;28;20095;-70
2021/07/15 10:20:17;;;;;;;15.27;4.63;;;29.10;99.90;;;;;;5086754;28;20027;-70
2021/07/15 10:22:43;;;;;;;16.30;5.25;;;29.30;99.90;;;;;;5086499;28;20055;-70
2021/07/15 10:25:12;;;;;;;10.15;4.53;;;29.30;99.90;;;;;;5087401;28;20590;-71
2021/07/15 10:27:42;;;;;;;9.63;4.22;;;29.30;99.90;;;;;;5070071;28;20052;-70
2021/07/15 10:30:09;;;;;;;10.57;4.53;;;29.20;99.90;;;;;;5086961;28;20036;-70
2021/07/15 10:32:37;;;;;;;12.52;4.55;;;29.50;99.80;;;;;;5086511;28;20163;-70
2021/07/15 10:35:08;;;;;;;13.32;4.97;;;29.60;99.60;;;;;;5088523;28;20023;-70
2021/07/15 10:37:47;;;;;;;12.57;5.25;;;29.60;99.90;;;;;;5087336;28;20031;-71
2021/07/15 10:40:16;;;;;;;14.52;4.82;;;29.80;99.90;;;;;;5086812;28;20031;-70
2021/07/15 10:42:41;;;;;;;11.73;4.38;;;29.90;99.80;;;;;;5087808;28;20040;-71
2021/07/15 10:45:09;;;;;;;13.77;4.55;;;29.80;99.60;;;;;;5087824;28;20043;-71
2021/07/15 10:47:37;;;;;;;11.60;4.10;;;29.70;99.80;;;;;;5087890;28;20482;-70
2021/07/15 10:50:04;;;;;;;10.35;4.75;;;29.60;99.90;;;;;;5088441;28;20019;-70
2021/07/15 10:52:32;;;;;;;9.30;4.22;;;29.50;99.50;;;;;;5086956;28;20459;-70
2021/07/15 10:55:00;;;;;;;9.05;4.20;;;29.40;99.10;;;;;;5087332;28;20076;-70
2021/07/15 10:57:27;;;;;;;15.82;4.63;;;29.20;99.30;;;;;;5050946;28;20032;-70
2021/07/15 10:59:53;;;;;;;9.40;4.25;;;29.20;99.50;;;;;;5086384;28;20562;-70
2021/07/15 11:02:24;;;;;;;10.65;4.25;;;29.30;99.70;;;;;;5087903;28;20286;-70
2021/07/15 11:04:51;;;;;;;15.35;4.60;;;29.40;99.40;;;;;;5085507;28;20502;-70
2021/07/15 11:07:21;;;;;;;8.85;3.95;;;29.50;99.90;;;;;;5086555;28;20128;-70
2021/07/15 11:09:48;;;;;;;10.43;4.40;;;29.50;99.60;;;;;;5087124;28;20115;-70
2021/07/15 11:12:32;;;;;;;12.95;4.18;;;29.50;99.70;;;;;;5082795;28;20027;-70
2021/07/15 11:15:12;;;;;;;12.82;4.43;;;29.50;98.90;;;;;;5086273;28;20826;-70
2021/07/15 11:17:47;;;;;;;9.93;3.63;;;29.20;98.90;;;;;;5087285;28;20143;-70
2021/07/15 11:20:32;;;;;;;12.27;4.05;;;29.30;98.90;;;;;;5086844;28;20138;-71
2021/07/15 11:23:07;;;;;;;9.55;3.80;;;29.30;98.80;;;;;;5085404;28;20188;-70
2021/07/15 11:25:39;;;;;;;9.13;3.63;;;29.50;98.60;;;;;;5086676;28;20039;-70
2021/07/15 11:28:12;;;;;;;14.02;3.95;;;29.80;98.80;;;;;;5087212;28;20573;-70
2021/07/15 11:30:42;;;;;;;10.95;4.03;;;30.20;98.40;;;;;;5087349;28;20047;-70
2021/07/15 11:36:11;;;;;;;11.02;3.97;;;30.30;98.30;;;;;;5086155;28;20031;-70
2021/07/15 11:38:42;;;;;;;9.05;3.28;;;30.30;99.20;;;;;;5082553;28;20036;-71
2021/07/15 11:41:13;;;;;;;10.85;3.67;;;30.40;98.10;;;;;;5051314;28;20325;-71
2021/07/15 11:43:48;;;;;;;8.10;3.40;;;30.30;97.90;;;;;;5085904;28;20028;-70
2021/07/15 11:46:15;;;;;;;8.10;3.17;;;30.00;97.90;;;;;;5086808;28;20089;-70
2021/07/15 11:48:58;;;;;;;11.25;3.85;;;30.00;98.10;;;;;;5085001;28;20641;-70
2021/07/15 11:51:33;;;;;;;12.55;4.38;;;30.10;98.40;;;;;;5087304;28;20066;-70
2021/07/15 11:54:21;;;;;;;9.10;3.63;;;30.00;98.70;;;;;;5085808;28;20486;-70
2021/07/15 11:56:48;;;;;;;12.25;3.67;;;29.90;98.80;;;;;;5085541;28;20546;-71
2021/07/15 11:59:34;;;;;;;9.80;3.72;;;30.10;99.10;;;;;;5069230;28;20380;-70
2021/07/15 12:02:07;;;;;;;11.55;4.00;;;30.20;98.30;;;;;;5086265;28;20020;-70
2021/07/15 12:05:11;;;;;;;9.35;3.55;;;30.20;97.90;;;;;;5086711;28;20124;-70
2021/07/15 12:07:45;;;;;;;9.38;3.67;;;30.10;98.20;;;;;;5085108;28;20479;-70
2021/07/15 12:10:25;;;;;;;12.68;4.22;;;29.90;98.40;;;;;;5090224;28;20035;-70
2021/07/15 12:12:53;;;;;;;15.02;4.40;;;29.90;99.20;;;;;;5090713;28;20192;-70
2021/07/15 12:15:23;;;;;;;9.27;3.53;;;30.30;98.70;;;;;;5090824;28;20436;-70
2021/07/15 12:17:52;;;;;;;13.57;4.28;;;30.10;98.10;;;;;;5091302;28;20085;-71
2021/07/15 12:20:20;;;;;;;12.40;4.68;;;29.70;98.70;;;;;;5089974;28;20101;-70
2021/07/15 12:22:47;;;;;;;16.92;4.22;;;29.40;98.60;;;;;;5089328;28;20141;-70
2021/07/15 12:25:18;;;;;;;9.52;3.55;;;29.40;99.00;;;;;;5090980;28;20039;-70
2021/07/15 12:27:47;;;;;;;16.05;4.63;;;29.40;98.60;;;;;;5090225;28;20051;-70
2021/07/15 12:30:14;;;;;;;12.50;3.67;;;29.50;98.80;;;;;;5090653;28;20032;-70
2021/07/15 12:32:54;;;;;;;11.95;4.28;;;29.40;98.80;;;;;;5089875;28;20027;-70
2021/07/15 12:35:21;;;;;;;11.85;3.35;;;29.40;98.20;;;;;;5090615;28;20058;-70
2021/07/15 12:37:47;;;;;;;11.15;3.78;;;29.30;98.60;;;;;;5087275;28;20032;-70
2021/07/15 12:40:13;;;;;;;15.02;4.10;;;29.10;98.60;;;;;;5085525;28;20375;-69
2021/07/15 12:42:40;;;;;;;12.93;4.47;;;28.90;98.90;;;;;;5090956;28;20490;-70
2021/07/15 12:45:17;;;;;;;12.88;4.07;;;28.70;99.10;;;;;;5090270;28;20483;-70
2021/07/15 12:47:58;;;;;;;11.65;3.65;;;28.50;98.70;;;;;;5090184;28;20024;-70
2021/07/15 12:50:24;;;;;;;15.98;3.78;;;28.40;99.00;;;;;;5089241;28;20356;-69
2021/07/15 12:53:05;;;;;;;9.77;3.30;;;28.20;99.60;;;;;;5089959;28;20024;-70